sensor_id;sensor_type;location;lat;lon;timestamp;P1;durP1;ratioP1;P2;durP2;ratioP2
61356;SDS011;47227;46.752;23.576;2023-06-01T00:01:18;9.00;;;5.90;;
61356;SDS011;47227;46.752;23.576;2023-06-01T00:03:47;8.80;;;5.20;;
61356;SDS011;47227;46.752;23.576;2023-06-01T00:06:14;9.10;;;5.80;;
61356;SDS011;47227;46.752;23.576;2023-06-01T00:08:40;6.10;;;5.40;;
61356;SDS011;47227;46.752;23.576;2023-06-01T00:11:07;11.80;;;6.30;;
61356;SDS011;47227;46.752;23.576;2023-06-01T00:13:33;11.80;;;7.00;;
61356;SDS011;47227;46.752;23.576;2023-06-01T00:16:00;9.80;;;6.10;;
61356;SDS011;47227;46.752;23.576;2023-06-01T00:18:27;10.50;;;6.50;;
61356;SDS011;47227;46.752;23.576;2023-06-01T00:20:53;7.40;;;6.10;;
61356;SDS011;47227;46.752;23.576;2023-06-01T00:23:20;8.30;;;7.10;;
61356;SDS011;47227;46.752;23.576;2023-06-01T00:25:47;8.50;;;6.50;;
61356;SDS011;47227;46.752;23.576;2023-06-01T00:28:14;8.50;;;6.70;;
61356;SDS011;47227;46.752;23.576;2023-06-01T00:30:41;6.70;;;5.70;;
61356;SDS011;47227;46.752;23.576;2023-06-01T00:33:08;8.90;;;5.80;;
61356;SDS011;47227;46.752;23.576;2023-06-01T00:35:35;9.60;;;6.50;;
61356;SDS011;47227;46.752;23.576;2023-06-01T00:38:02;9.70;;;5.90;;
61356;SDS011;47227;46.752;23.576;2023-06-01T00:40:28;8.90;;;5.50;;
61356;SDS011;47227;46.752;23.576;2023-06-01T00:42:55;8.30;;;6.00;;
61356;SDS011;47227;46.752;23.576;2023-06-01T00:45:21;9.00;;;6.30;;
61356;SDS011;47227;46.752;23.576;2023-06-01T00:47:48;8.90;;;5.80;;
61356;SDS011;47227;46.752;23.576;2023-06-01T00:50:14;13.40;;;5.90;;
61356;SDS011;47227;46.752;23.576;2023-06-01T00:52:42;8.00;;;5.70;;
61356;SDS011;47227;46.752;23.576;2023-06-01T00:55:09;10.80;;;5.70;;
61356;SDS011;47227;46.752;23.576;2023-06-01T00:57:37;9.00;;;5.40;;
61356;SDS011;47227;46.752;23.576;2023-06-01T01:00:05;8.20;;;5.10;;
61356;SDS011;47227;46.752;23.576;2023-06-01T01:02:37;7.20;;;5.00;;
61356;SDS011;47227;46.752;23.576;2023-06-01T01:05:06;9.30;;;5.40;;
61356;SDS011;47227;46.752;23.576;2023-06-01T01:07:42;7.60;;;5.50;;
61356;SDS011;47227;46.752;23.576;2023-06-01T01:13:14;9.30;;;6.10;;
61356;SDS011;47227;46.752;23.576;2023-06-01T01:15:54;11.50;;;6.40;;
61356;SDS011;47227;46.752;23.576;2023-06-01T01:18:41;10.00;;;6.70;;
61356;SDS011;47227;46.752;23.576;2023-06-01T01:21:12;10.50;;;7.10;;
61356;SDS011;47227;46.752;23.576;2023-06-01T01:24:05;11.00;;;7.00;;
61356;SDS011;47227;46.752;23.576;2023-06-01T01:26:46;11.20;;;6.90;;
61356;SDS011;47227;46.752;23.576;2023-06-01T01:29:30;8.90;;;7.30;;
61356;SDS011;47227;46.752;23.576;2023-06-01T01:31:59;12.70;;;7.30;;
61356;SDS011;47227;46.752;23.576;2023-06-01T01:34:29;10.50;;;7.30;;
61356;SDS011;47227;46.752;23.576;2023-06-01T01:36:57;7.50;;;6.20;;
61356;SDS011;47227;46.752;23.576;2023-06-01T01:39:24;13.90;;;7.10;;
61356;SDS011;47227;46.752;23.576;2023-06-01T01:41:51;9.10;;;6.40;;
61356;SDS011;47227;46.752;23.576;2023-06-01T01:44:18;7.70;;;6.30;;
61356;SDS011;47227;46.752;23.576;2023-06-01T01:49:39;9.20;;;6.40;;
61356;SDS011;47227;46.752;23.576;2023-06-01T01:52:18;9.00;;;5.60;;
61356;SDS011;47227;46.752;23.576;2023-06-01T01:54:47;8.30;;;6.10;;
61356;SDS011;47227;46.752;23.576;2023-06-01T01:57:17;8.50;;;5.90;;
61356;SDS011;47227;46.752;23.576;2023-06-01T01:59:45;6.60;;;5.40;;
61356;SDS011;47227;46.752;23.576;2023-06-01T02:02:13;7.70;;;5.40;;
61356;SDS011;47227;46.752;23.576;2023-06-01T02:04:40;9.60;;;5.60;;
61356;SDS011;47227;46.752;23.576;2023-06-01T02:07:08;12.50;;;6.10;;
61356;SDS011;47227;46.752;23.576;2023-06-01T02:09:35;7.40;;;5.70;;
61356;SDS011;47227;46.752;23.576;2023-06-01T02:13:10;7.90;;;6.20;;
61356;SDS011;47227;46.752;23.576;2023-06-01T02:16:43;7.10;;;6.30;;
61356;SDS011;47227;46.752;23.576;2023-06-01T02:20:19;9.10;;;6.30;;
61356;SDS011;47227;46.752;23.576;2023-06-01T02:23:50;10.00;;;6.60;;
61356;SDS011;47227;46.752;23.576;2023-06-01T02:27:32;13.30;;;6.90;;
61356;SDS011;47227;46.752;23.576;2023-06-01T02:31:06;8.50;;;6.70;;
61356;SDS011;47227;46.752;23.576;2023-06-01T02:34:38;9.20;;;7.10;;
61356;SDS011;47227;46.752;23.576;2023-06-01T02:38:11;8.00;;;5.60;;
61356;SDS011;47227;46.752;23.576;2023-06-01T02:41:47;13.50;;;5.80;;
61356;SDS011;47227;46.752;23.576;2023-06-01T02:45:13;11.00;;;6.00;;
61356;SDS011;47227;46.752;23.576;2023-06-01T02:48:41;6.70;;;6.00;;
61356;SDS011;47227;46.752;23.576;2023-06-01T02:52:13;7.70;;;6.20;;
61356;SDS011;47227;46.752;23.576;2023-06-01T02:55:43;12.20;;;5.70;;
61356;SDS011;47227;46.752;23.576;2023-06-01T02:59:16;8.20;;;5.30;;
61356;SDS011;47227;46.752;23.576;2023-06-01T03:02:47;9.40;;;5.70;;
61356;SDS011;47227;46.752;23.576;2023-06-01T03:06:15;6.90;;;4.60;;
61356;SDS011;47227;46.752;23.576;2023-06-01T03:09:48;4.60;;;3.80;;
61356;SDS011;47227;46.752;23.576;2023-06-01T03:13:19;6.80;;;4.40;;
61356;SDS011;47227;46.752;23.576;2023-06-01T03:16:47;7.30;;;4.10;;
61356;SDS011;47227;46.752;23.576;2023-06-01T03:20:34;5.50;;;4.20;;
61356;SDS011;47227;46.752;23.576;2023-06-01T03:24:15;7.00;;;4.10;;
61356;SDS011;47227;46.752;23.576;2023-06-01T03:27:51;6.10;;;4.60;;
61356;SDS011;47227;46.752;23.576;2023-06-01T03:31:27;6.30;;;5.40;;
61356;SDS011;47227;46.752;23.576;2023-06-01T03:35:02;6.70;;;5.30;;
61356;SDS011;47227;46.752;23.576;2023-06-01T03:38:47;7.90;;;5.30;;
61356;SDS011;47227;46.752;23.576;2023-06-01T03:42:12;8.00;;;5.60;;
61356;SDS011;47227;46.752;23.576;2023-06-01T03:45:40;8.20;;;5.50;;
61356;SDS011;47227;46.752;23.576;2023-06-01T03:48:56;7.60;;;5.00;;
61356;SDS011;47227;46.752;23.576;2023-06-01T03:55:54;7.40;;;5.40;;
61356;SDS011;47227;46.752;23.576;2023-06-01T03:59:33;6.20;;;5.50;;
61356;SDS011;47227;46.752;23.576;2023-06-01T04:03:04;6.60;;;5.50;;
61356;SDS011;47227;46.752;23.576;2023-06-01T04:06:32;8.50;;;5.40;;
61356;SDS011;47227;46.752;23.576;2023-06-01T04:09:58;8.80;;;5.50;;
61356;SDS011;47227;46.752;23.576;2023-06-01T04:22:08;5.80;;;4.20;;
61356;SDS011;47227;46.752;23.576;2023-06-01T04:25:45;6.80;;;4.50;;
61356;SDS011;47227;46.752;23.576;2023-06-01T04:29:17;7.70;;;4.30;;
61356;SDS011;47227;46.752;23.576;2023-06-01T04:32:28;5.30;;;4.00;;
61356;SDS011;47227;46.752;23.576;2023-06-01T04:35:48;6.60;;;4.70;;
61356;SDS011;47227;46.752;23.576;2023-06-01T04:42:56;6.50;;;4.90;;
61356;SDS011;47227;46.752;23.576;2023-06-01T04:46:37;11.50;;;5.10;;
61356;SDS011;47227;46.752;23.576;2023-06-01T04:49:57;6.40;;;4.90;;
61356;SDS011;47227;46.752;23.576;2023-06-01T04:53:38;6.60;;;5.20;;
61356;SDS011;47227;46.752;23.576;2023-06-01T04:57:06;8.90;;;5.30;;
61356;SDS011;47227;46.752;23.576;2023-06-01T05:00:27;7.20;;;5.20;;
61356;SDS011;47227;46.752;23.576;2023-06-01T05:04:12;7.00;;;4.80;;
61356;SDS011;47227;46.752;23.576;2023-06-01T05:07:56;7.70;;;4.70;;
61356;SDS011;47227;46.752;23.576;2023-06-01T05:11:29;5.50;;;4.80;;
61356;SDS011;47227;46.752;23.576;2023-06-01T05:14:54;7.20;;;4.50;;
61356;SDS011;47227;46.752;23.576;2023-06-01T05:18:27;6.30;;;4.20;;
61356;SDS011;47227;46.752;23.576;2023-06-01T05:22:10;6.70;;;4.50;;
61356;SDS011;47227;46.752;23.576;2023-06-01T05:25:24;8.20;;;4.60;;
61356;SDS011;47227;46.752;23.576;2023-06-01T05:28:39;6.00;;;5.00;;
61356;SDS011;47227;46.752;23.576;2023-06-01T05:31:52;6.00;;;4.70;;
61356;SDS011;47227;46.752;23.576;2023-06-01T05:35:03;8.40;;;5.10;;
61356;SDS011;47227;46.752;23.576;2023-06-01T05:38:27;12.50;;;5.10;;
61356;SDS011;47227;46.752;23.576;2023-06-01T05:41:39;7.30;;;4.50;;
61356;SDS011;47227;46.752;23.576;2023-06-01T05:49:37;9.80;;;4.80;;
61356;SDS011;47227;46.752;23.576;2023-06-01T05:53:01;13.00;;;5.30;;
61356;SDS011;47227;46.752;23.576;2023-06-01T05:56:14;8.80;;;5.10;;
61356;SDS011;47227;46.752;23.576;2023-06-01T05:59:20;8.20;;;5.70;;
61356;SDS011;47227;46.752;23.576;2023-06-01T06:02:35;5.70;;;4.40;;
61356;SDS011;47227;46.752;23.576;2023-06-01T06:05:55;5.30;;;4.70;;
61356;SDS011;47227;46.752;23.576;2023-06-01T06:09:08;6.50;;;5.30;;
61356;SDS011;47227;46.752;23.576;2023-06-01T06:12:20;9.20;;;5.30;;
61356;SDS011;47227;46.752;23.576;2023-06-01T06:15:27;7.00;;;5.60;;
61356;SDS011;47227;46.752;23.576;2023-06-01T06:18:35;5.80;;;5.10;;
61356;SDS011;47227;46.752;23.576;2023-06-01T06:22:07;6.90;;;4.90;;
61356;SDS011;47227;46.752;23.576;2023-06-01T06:25:12;6.10;;;4.60;;
61356;SDS011;47227;46.752;23.576;2023-06-01T06:28:18;9.70;;;5.40;;
61356;SDS011;47227;46.752;23.576;2023-06-01T06:31:32;8.60;;;4.90;;
61356;SDS011;47227;46.752;23.576;2023-06-01T06:35:00;7.90;;;5.50;;
61356;SDS011;47227;46.752;23.576;2023-06-01T06:38:32;5.70;;;4.30;;
61356;SDS011;47227;46.752;23.576;2023-06-01T06:41:34;8.90;;;5.20;;
61356;SDS011;47227;46.752;23.576;2023-06-01T06:44:48;7.10;;;4.90;;
61356;SDS011;47227;46.752;23.576;2023-06-01T06:48:09;8.00;;;5.50;;
61356;SDS011;47227;46.752;23.576;2023-06-01T06:51:22;7.70;;;5.10;;
61356;SDS011;47227;46.752;23.576;2023-06-01T06:54:31;7.50;;;5.30;;
61356;SDS011;47227;46.752;23.576;2023-06-01T06:57:41;5.50;;;5.00;;
61356;SDS011;47227;46.752;23.576;2023-06-01T07:00:50;10.50;;;5.90;;
61356;SDS011;47227;46.752;23.576;2023-06-01T07:04:33;10.30;;;6.00;;
61356;SDS011;47227;46.752;23.576;2023-06-01T07:07:40;8.20;;;5.80;;
61356;SDS011;47227;46.752;23.576;2023-06-01T07:10:49;14.10;;;5.60;;
61356;SDS011;47227;46.752;23.576;2023-06-01T07:13:59;11.90;;;5.10;;
61356;SDS011;47227;46.752;23.576;2023-06-01T07:17:34;9.00;;;5.60;;
61356;SDS011;47227;46.752;23.576;2023-06-01T07:20:30;7.90;;;5.60;;
61356;SDS011;47227;46.752;23.576;2023-06-01T07:22:57;6.10;;;5.10;;
61356;SDS011;47227;46.752;23.576;2023-06-01T07:25:23;9.20;;;6.00;;
61356;SDS011;47227;46.752;23.576;2023-06-01T07:27:50;6.40;;;5.60;;
61356;SDS011;47227;46.752;23.576;2023-06-01T07:30:17;8.50;;;5.80;;
61356;SDS011;47227;46.752;23.576;2023-06-01T07:32:44;10.40;;;5.70;;
61356;SDS011;47227;46.752;23.576;2023-06-01T07:35:11;6.30;;;5.70;;
61356;SDS011;47227;46.752;23.576;2023-06-01T07:37:41;7.20;;;5.30;;
61356;SDS011;47227;46.752;23.576;2023-06-01T07:40:08;12.20;;;6.20;;
61356;SDS011;47227;46.752;23.576;2023-06-01T07:42:35;8.30;;;5.60;;
61356;SDS011;47227;46.752;23.576;2023-06-01T07:45:02;12.20;;;6.10;;
61356;SDS011;47227;46.752;23.576;2023-06-01T07:47:29;8.40;;;6.20;;
61356;SDS011;47227;46.752;23.576;2023-06-01T07:49:57;9.40;;;5.50;;
61356;SDS011;47227;46.752;23.576;2023-06-01T07:52:24;6.50;;;5.50;;
61356;SDS011;47227;46.752;23.576;2023-06-01T07:54:51;11.50;;;5.60;;
61356;SDS011;47227;46.752;23.576;2023-06-01T07:57:18;8.70;;;6.20;;
61356;SDS011;47227;46.752;23.576;2023-06-01T07:59:47;10.10;;;5.40;;
61356;SDS011;47227;46.752;23.576;2023-06-01T08:02:14;11.80;;;5.50;;
61356;SDS011;47227;46.752;23.576;2023-06-01T08:04:41;7.40;;;5.00;;
61356;SDS011;47227;46.752;23.576;2023-06-01T08:07:08;6.40;;;4.40;;
61356;SDS011;47227;46.752;23.576;2023-06-01T08:09:35;9.90;;;5.00;;
61356;SDS011;47227;46.752;23.576;2023-06-01T08:12:03;5.70;;;5.00;;
61356;SDS011;47227;46.752;23.576;2023-06-01T08:14:31;9.30;;;5.50;;
61356;SDS011;47227;46.752;23.576;2023-06-01T08:17:00;11.40;;;4.50;;
61356;SDS011;47227;46.752;23.576;2023-06-01T08:19:28;10.50;;;4.60;;
61356;SDS011;47227;46.752;23.576;2023-06-01T08:21:54;7.00;;;4.10;;
61356;SDS011;47227;46.752;23.576;2023-06-01T08:24:21;4.10;;;3.70;;
61356;SDS011;47227;46.752;23.576;2023-06-01T08:26:48;4.20;;;3.70;;
61356;SDS011;47227;46.752;23.576;2023-06-01T08:29:15;5.00;;;4.20;;
61356;SDS011;47227;46.752;23.576;2023-06-01T08:31:43;5.60;;;4.10;;
61356;SDS011;47227;46.752;23.576;2023-06-01T08:34:09;7.10;;;4.60;;
61356;SDS011;47227;46.752;23.576;2023-06-01T08:36:36;6.10;;;4.40;;
61356;SDS011;47227;46.752;23.576;2023-06-01T08:39:19;9.80;;;5.50;;
61356;SDS011;47227;46.752;23.576;2023-06-01T08:41:53;9.40;;;4.00;;
61356;SDS011;47227;46.752;23.576;2023-06-01T08:44:38;10.70;;;4.20;;
61356;SDS011;47227;46.752;23.576;2023-06-01T08:47:06;5.60;;;4.10;;
61356;SDS011;47227;46.752;23.576;2023-06-01T08:49:35;7.40;;;4.00;;
61356;SDS011;47227;46.752;23.576;2023-06-01T08:52:58;7.30;;;3.60;;
61356;SDS011;47227;46.752;23.576;2023-06-01T08:56:38;6.50;;;4.30;;
61356;SDS011;47227;46.752;23.576;2023-06-01T09:00:13;11.50;;;5.60;;
61356;SDS011;47227;46.752;23.576;2023-06-01T09:03:42;5.70;;;3.50;;
61356;SDS011;47227;46.752;23.576;2023-06-01T09:07:22;8.50;;;3.90;;
61356;SDS011;47227;46.752;23.576;2023-06-01T09:10:54;4.60;;;3.30;;
61356;SDS011;47227;46.752;23.576;2023-06-01T09:14:28;6.90;;;3.60;;
61356;SDS011;47227;46.752;23.576;2023-06-01T09:18:09;5.30;;;2.90;;
61356;SDS011;47227;46.752;23.576;2023-06-01T09:21:54;6.40;;;3.40;;
61356;SDS011;47227;46.752;23.576;2023-06-01T09:25:27;8.90;;;3.80;;
61356;SDS011;47227;46.752;23.576;2023-06-01T09:28:53;4.40;;;3.30;;
61356;SDS011;47227;46.752;23.576;2023-06-01T09:32:20;7.40;;;4.10;;
61356;SDS011;47227;46.752;23.576;2023-06-01T09:35:50;4.00;;;3.60;;
61356;SDS011;47227;46.752;23.576;2023-06-01T09:39:38;4.90;;;3.20;;
61356;SDS011;47227;46.752;23.576;2023-06-01T09:43:23;3.60;;;3.30;;
61356;SDS011;47227;46.752;23.576;2023-06-01T09:46:45;5.00;;;4.10;;
61356;SDS011;47227;46.752;23.576;2023-06-01T09:50:31;5.00;;;3.70;;
61356;SDS011;47227;46.752;23.576;2023-06-01T10:36:12;11.00;;;4.40;;
61356;SDS011;47227;46.752;23.576;2023-06-01T10:50:19;6.30;;;3.80;;
61356;SDS011;47227;46.752;23.576;2023-06-01T11:13:21;5.10;;;4.00;;
61356;SDS011;47227;46.752;23.576;2023-06-01T11:16:49;4.20;;;3.80;;
61356;SDS011;47227;46.752;23.576;2023-06-01T11:20:20;4.80;;;4.10;;
61356;SDS011;47227;46.752;23.576;2023-06-01T11:32:29;4.60;;;3.90;;
61356;SDS011;47227;46.752;23.576;2023-06-01T11:36:02;8.50;;;4.00;;
61356;SDS011;47227;46.752;23.576;2023-06-01T11:42:34;5.50;;;4.50;;
61356;SDS011;47227;46.752;23.576;2023-06-01T12:08:24;6.00;;;3.60;;
61356;SDS011;47227;46.752;23.576;2023-06-01T12:12:23;5.30;;;4.20;;
61356;SDS011;47227;46.752;23.576;2023-06-01T12:15:54;6.10;;;4.10;;
61356;SDS011;47227;46.752;23.576;2023-06-01T12:19:14;5.50;;;4.60;;
61356;SDS011;47227;46.752;23.576;2023-06-01T12:22:30;5.10;;;4.60;;
61356;SDS011;47227;46.752;23.576;2023-06-01T12:26:09;6.40;;;4.70;;
61356;SDS011;47227;46.752;23.576;2023-06-01T12:29:47;5.00;;;4.50;;
61356;SDS011;47227;46.752;23.576;2023-06-01T12:33:34;6.00;;;4.30;;
61356;SDS011;47227;46.752;23.576;2023-06-01T12:42:05;9.80;;;4.30;;
61356;SDS011;47227;46.752;23.576;2023-06-01T12:46:49;4.40;;;4.00;;
61356;SDS011;47227;46.752;23.576;2023-06-01T12:52:09;5.00;;;3.70;;
61356;SDS011;47227;46.752;23.576;2023-06-01T12:56:32;4.70;;;4.30;;
61356;SDS011;47227;46.752;23.576;2023-06-01T13:01:23;6.80;;;3.90;;
61356;SDS011;47227;46.752;23.576;2023-06-01T13:20:30;3.90;;;3.50;;
61356;SDS011;47227;46.752;23.576;2023-06-01T13:24:21;4.30;;;3.70;;
61356;SDS011;47227;46.752;23.576;2023-06-01T13:27:42;5.20;;;3.80;;
61356;SDS011;47227;46.752;23.576;2023-06-01T13:46:58;4.20;;;3.80;;
61356;SDS011;47227;46.752;23.576;2023-06-01T14:05:25;5.30;;;3.90;;
61356;SDS011;47227;46.752;23.576;2023-06-01T14:17:41;4.50;;;3.30;;
61356;SDS011;47227;46.752;23.576;2023-06-01T14:21:05;7.10;;;3.30;;
61356;SDS011;47227;46.752;23.576;2023-06-01T14:24:28;6.30;;;3.20;;
61356;SDS011;47227;46.752;23.576;2023-06-01T14:27:39;7.80;;;3.90;;
61356;SDS011;47227;46.752;23.576;2023-06-01T14:31:22;10.40;;;4.20;;
61356;SDS011;47227;46.752;23.576;2023-06-01T14:35:17;6.50;;;3.70;;
61356;SDS011;47227;46.752;23.576;2023-06-01T14:38:57;11.10;;;4.80;;
61356;SDS011;47227;46.752;23.576;2023-06-01T14:42:41;5.40;;;4.10;;
61356;SDS011;47227;46.752;23.576;2023-06-01T14:46:05;6.60;;;3.70;;
61356;SDS011;47227;46.752;23.576;2023-06-01T14:53:51;6.60;;;4.00;;
61356;SDS011;47227;46.752;23.576;2023-06-01T14:57:39;5.50;;;4.50;;
61356;SDS011;47227;46.752;23.576;2023-06-01T15:04:43;5.60;;;3.70;;
61356;SDS011;47227;46.752;23.576;2023-06-01T15:08:13;5.40;;;4.00;;
61356;SDS011;47227;46.752;23.576;2023-06-01T15:11:49;5.60;;;4.10;;
61356;SDS011;47227;46.752;23.576;2023-06-01T15:15:13;4.40;;;3.70;;
61356;SDS011;47227;46.752;23.576;2023-06-01T15:18:49;4.70;;;3.80;;
61356;SDS011;47227;46.752;23.576;2023-06-01T15:22:01;7.30;;;3.30;;
61356;SDS011;47227;46.752;23.576;2023-06-01T15:24:42;5.20;;;3.80;;
61356;SDS011;47227;46.752;23.576;2023-06-01T15:27:18;4.70;;;3.50;;
61356;SDS011;47227;46.752;23.576;2023-06-01T15:31:08;4.90;;;3.50;;
61356;SDS011;47227;46.752;23.576;2023-06-01T15:35:02;8.00;;;4.60;;
61356;SDS011;47227;46.752;23.576;2023-06-01T15:39:10;7.40;;;3.30;;
61356;SDS011;47227;46.752;23.576;2023-06-01T15:43:03;4.90;;;4.00;;
61356;SDS011;47227;46.752;23.576;2023-06-01T15:46:28;6.00;;;3.90;;
61356;SDS011;47227;46.752;23.576;2023-06-01T15:48:57;3.70;;;3.40;;
61356;SDS011;47227;46.752;23.576;2023-06-01T15:51:24;4.60;;;3.60;;
61356;SDS011;47227;46.752;23.576;2023-06-01T15:53:52;7.90;;;3.80;;
61356;SDS011;47227;46.752;23.576;2023-06-01T15:56:20;4.80;;;3.30;;
61356;SDS011;47227;46.752;23.576;2023-06-01T15:59:29;3.80;;;3.40;;
61356;SDS011;47227;46.752;23.576;2023-06-01T16:02:58;3.80;;;3.00;;
61356;SDS011;47227;46.752;23.576;2023-06-01T16:05:38;2.90;;;2.70;;
61356;SDS011;47227;46.752;23.576;2023-06-01T16:08:46;3.40;;;2.40;;
61356;SDS011;47227;46.752;23.576;2023-06-01T16:11:18;3.70;;;2.40;;
61356;SDS011;47227;46.752;23.576;2023-06-01T16:14:05;2.20;;;2.00;;
61356;SDS011;47227;46.752;23.576;2023-06-01T16:16:38;2.10;;;1.90;;
61356;SDS011;47227;46.752;23.576;2023-06-01T16:19:08;4.60;;;2.20;;
61356;SDS011;47227;46.752;23.576;2023-06-01T16:21:49;3.80;;;2.20;;
61356;SDS011;47227;46.752;23.576;2023-06-01T16:25:32;4.50;;;2.30;;
61356;SDS011;47227;46.752;23.576;2023-06-01T16:29:02;3.20;;;2.20;;
61356;SDS011;47227;46.752;23.576;2023-06-01T16:32:53;2.30;;;2.10;;
61356;SDS011;47227;46.752;23.576;2023-06-01T16:36:45;2.10;;;1.90;;
61356;SDS011;47227;46.752;23.576;2023-06-01T16:40:31;2.30;;;2.10;;
61356;SDS011;47227;46.752;23.576;2023-06-01T16:43:48;2.80;;;2.50;;
61356;SDS011;47227;46.752;23.576;2023-06-01T16:47:36;2.30;;;2.00;;
61356;SDS011;47227;46.752;23.576;2023-06-01T16:51:22;4.70;;;3.10;;
61356;SDS011;47227;46.752;23.576;2023-06-01T16:54:38;4.90;;;3.20;;
61356;SDS011;47227;46.752;23.576;2023-06-01T16:57:57;4.30;;;2.70;;
61356;SDS011;47227;46.752;23.576;2023-06-01T17:01:25;3.60;;;2.90;;
61356;SDS011;47227;46.752;23.576;2023-06-01T17:04:43;7.80;;;3.10;;
61356;SDS011;47227;46.752;23.576;2023-06-01T17:13:55;4.30;;;2.80;;
61356;SDS011;47227;46.752;23.576;2023-06-01T17:20:19;3.80;;;2.70;;
61356;SDS011;47227;46.752;23.576;2023-06-01T17:23:36;3.10;;;2.70;;
61356;SDS011;47227;46.752;23.576;2023-06-01T17:39:16;3.80;;;2.70;;
61356;SDS011;47227;46.752;23.576;2023-06-01T18:05:00;5.20;;;3.50;;
61356;SDS011;47227;46.752;23.576;2023-06-01T18:08:34;4.60;;;3.20;;
61356;SDS011;47227;46.752;23.576;2023-06-01T18:15:05;5.70;;;3.00;;
61356;SDS011;47227;46.752;23.576;2023-06-01T18:36:22;3.80;;;3.10;;
61356;SDS011;47227;46.752;23.576;2023-06-01T18:39:54;4.90;;;3.40;;
61356;SDS011;47227;46.752;23.576;2023-06-01T18:43:33;4.70;;;3.50;;
61356;SDS011;47227;46.752;23.576;2023-06-01T18:46:52;7.00;;;3.80;;
61356;SDS011;47227;46.752;23.576;2023-06-01T18:50:12;3.50;;;3.20;;
61356;SDS011;47227;46.752;23.576;2023-06-01T18:53:49;3.70;;;3.10;;
61356;SDS011;47227;46.752;23.576;2023-06-01T18:57:06;3.70;;;3.00;;
61356;SDS011;47227;46.752;23.576;2023-06-01T19:00:21;4.50;;;3.20;;
61356;SDS011;47227;46.752;23.576;2023-06-01T19:03:41;5.10;;;3.40;;
61356;SDS011;47227;46.752;23.576;2023-06-01T19:06:56;4.40;;;3.20;;
61356;SDS011;47227;46.752;23.576;2023-06-01T19:14:27;4.80;;;3.70;;
61356;SDS011;47227;46.752;23.576;2023-06-01T19:27:13;4.70;;;3.30;;
61356;SDS011;47227;46.752;23.576;2023-06-01T19:30:28;5.70;;;3.20;;
61356;SDS011;47227;46.752;23.576;2023-06-01T19:33:44;5.00;;;3.50;;
61356;SDS011;47227;46.752;23.576;2023-06-01T19:37:24;6.80;;;3.10;;
61356;SDS011;47227;46.752;23.576;2023-06-01T20:02:57;5.40;;;4.30;;
61356;SDS011;47227;46.752;23.576;2023-06-01T20:06:16;5.80;;;4.00;;
61356;SDS011;47227;46.752;23.576;2023-06-01T20:20:22;6.30;;;4.30;;
61356;SDS011;47227;46.752;23.576;2023-06-01T20:27:08;4.90;;;4.20;;
61356;SDS011;47227;46.752;23.576;2023-06-01T20:46:01;4.20;;;3.80;;
61356;SDS011;47227;46.752;23.576;2023-06-01T20:49:05;5.90;;;4.50;;
61356;SDS011;47227;46.752;23.576;2023-06-01T20:52:49;4.60;;;3.90;;
61356;SDS011;47227;46.752;23.576;2023-06-01T20:59:48;5.50;;;4.30;;
61356;SDS011;47227;46.752;23.576;2023-06-01T21:03:15;5.90;;;4.30;;
61356;SDS011;47227;46.752;23.576;2023-06-01T21:06:49;8.50;;;5.10;;
61356;SDS011;47227;46.752;23.576;2023-06-01T21:15:31;4.80;;;4.10;;
61356;SDS011;47227;46.752;23.576;2023-06-01T21:19:07;5.30;;;4.10;;
61356;SDS011;47227;46.752;23.576;2023-06-01T21:25:48;5.30;;;3.50;;
61356;SDS011;47227;46.752;23.576;2023-06-01T21:33:58;4.30;;;3.90;;
61356;SDS011;47227;46.752;23.576;2023-06-01T21:44:47;7.10;;;4.00;;
61356;SDS011;47227;46.752;23.576;2023-06-01T21:48:02;4.90;;;4.10;;
61356;SDS011;47227;46.752;23.576;2023-06-01T21:51:16;7.50;;;4.00;;
61356;SDS011;47227;46.752;23.576;2023-06-01T21:58:49;4.60;;;4.00;;
61356;SDS011;47227;46.752;23.576;2023-06-01T22:02:09;6.70;;;3.70;;
61356;SDS011;47227;46.752;23.576;2023-06-01T22:05:11;5.80;;;3.60;;
61356;SDS011;47227;46.752;23.576;2023-06-01T22:13:26;5.30;;;3.70;;
61356;SDS011;47227;46.752;23.576;2023-06-01T22:16:44;5.00;;;4.50;;
61356;SDS011;47227;46.752;23.576;2023-06-01T22:20:03;8.00;;;4.40;;
61356;SDS011;47227;46.752;23.576;2023-06-01T22:23:35;6.60;;;4.00;;
61356;SDS011;47227;46.752;23.576;2023-06-01T22:26:35;6.50;;;4.00;;
61356;SDS011;47227;46.752;23.576;2023-06-01T22:30:03;5.90;;;4.60;;
61356;SDS011;47227;46.752;23.576;2023-06-01T22:37:07;4.00;;;3.50;;
61356;SDS011;47227;46.752;23.576;2023-06-01T22:40:51;5.20;;;3.70;;
61356;SDS011;47227;46.752;23.576;2023-06-01T22:44:11;5.50;;;3.20;;
61356;SDS011;47227;46.752;23.576;2023-06-01T22:47:37;3.50;;;3.10;;
61356;SDS011;47227;46.752;23.576;2023-06-01T22:50:52;6.50;;;3.80;;
61356;SDS011;47227;46.752;23.576;2023-06-01T22:53:27;4.60;;;3.60;;
61356;SDS011;47227;46.752;23.576;2023-06-01T22:57:06;3.60;;;3.10;;
61356;SDS011;47227;46.752;23.576;2023-06-01T23:00:41;5.10;;;4.00;;
61356;SDS011;47227;46.752;23.576;2023-06-01T23:04:17;7.50;;;3.90;;
61356;SDS011;47227;46.752;23.576;2023-06-01T23:07:30;5.20;;;3.90;;
61356;SDS011;47227;46.752;23.576;2023-06-01T23:10:45;5.00;;;3.80;;
61356;SDS011;47227;46.752;23.576;2023-06-01T23:14:02;6.50;;;4.80;;
61356;SDS011;47227;46.752;23.576;2023-06-01T23:17:41;4.30;;;3.20;;
61356;SDS011;47227;46.752;23.576;2023-06-01T23:21:18;4.30;;;3.50;;
61356;SDS011;47227;46.752;23.576;2023-06-01T23:24:57;5.20;;;3.50;;
61356;SDS011;47227;46.752;23.576;2023-06-01T23:32:21;7.00;;;3.80;;
61356;SDS011;47227;46.752;23.576;2023-06-01T23:35:57;4.10;;;3.50;;
61356;SDS011;47227;46.752;23.576;2023-06-01T23:39:29;4.30;;;3.40;;
61356;SDS011;47227;46.752;23.576;2023-06-01T23:43:11;4.60;;;3.60;;
61356;SDS011;47227;46.752;23.576;2023-06-01T23:46:44;4.90;;;3.50;;
61356;SDS011;47227;46.752;23.576;2023-06-01T23:50:23;4.10;;;3.20;;
61356;SDS011;47227;46.752;23.576;2023-06-01T23:54:11;5.30;;;3.20;;
61356;SDS011;47227;46.752;23.576;2023-06-01T23:57:40;4.40;;;3.20;;
